Time;durP1;ratioP1;P1;durP2;ratioP2;P2;SDS_P1;SDS_P2;PMS_P1;PMS_P2;Temp;Humidity;BMP_temperature;BMP_pressure;BME280_temperature;BME280_humidity;BME280_pressure;Samples;Min_cycle;Max_cycle;Signal;HPM_P1;HPM_P2
2022/06/28 00:00:19;;;;;;;9.63;7.38;;;;;;;20.67;76.76;95293.19;4996165;28;20207;-65
2022/06/28 00:02:47;;;;;;;11.10;6.15;;;;;;;20.74;76.33;95296.19;4996239;28;20208;-64
2022/06/28 00:05:14;;;;;;;7.32;6.63;;;;;;;20.58;76.70;95304.16;4994161;28;20231;-64
2022/06/28 00:07:42;;;;;;;8.35;6.63;;;;;;;20.85;76.16;95301.41;4995591;28;20234;-64
2022/06/28 00:10:11;;;;;;;12.60;6.25;;;;;;;21.35;74.23;95290.09;4996815;28;20200;-64
2022/06/28 00:12:39;;;;;;;9.85;7.00;;;;;;;21.71;72.62;95294.34;4995816;28;20219;-64
2022/06/28 00:17:54;;;;;;;9.82;6.05;;;;;;;21.72;71.83;95296.00;4995795;28;20281;-65
2022/06/28 00:20:22;;;;;;;6.68;6.05;;;;;;;21.56;72.58;95295.44;4995009;28;20972;-66
2022/06/28 00:22:48;;;;;;;8.68;7.25;;;;;;;21.10;74.22;95299.69;4996602;28;20253;-64
2022/06/28 00:25:15;;;;;;;7.53;6.82;;;;;;;20.95;75.08;95294.66;4996569;28;20229;-63
2022/06/28 00:27:42;;;;;;;9.55;6.45;;;;;;;20.89;75.41;95299.44;4995438;28;20712;-64
2022/06/28 00:30:10;;;;;;;12.80;7.50;;;;;;;21.00;75.20;95300.34;4995018;28;20644;-64
2022/06/28 00:32:37;;;;;;;8.13;7.30;;;;;;;20.89;75.35;95297.69;4994999;28;20578;-64
2022/06/28 00:35:07;;;;;;;8.13;7.35;;;;;;;20.46;77.31;95301.59;4995081;28;20650;-65
2022/06/28 00:37:34;;;;;;;8.95;7.65;;;;;;;20.54;77.09;95296.75;4998635;28;20203;-64
2022/06/28 00:40:01;;;;;;;9.75;7.97;;;;;;;20.58;76.97;95293.00;4995951;28;20219;-64
2022/06/28 00:42:28;;;;;;;8.70;7.03;;;;;;;20.76;76.68;95298.66;4996228;28;20716;-63
2022/06/28 00:44:57;;;;;;;8.80;7.90;;;;;;;20.66;76.65;95301.03;4994858;28;20680;-64
2022/06/28 00:47:24;;;;;;;12.10;7.75;;;;;;;20.55;77.04;95299.19;4994941;28;20235;-63
2022/06/28 00:49:51;;;;;;;13.13;7.97;;;;;;;20.91;75.93;95293.22;4994939;28;20274;-64
2022/06/28 00:52:19;;;;;;;9.05;7.00;;;;;;;21.28;74.48;95290.66;4996496;28;20317;-64
2022/06/28 00:54:45;;;;;;;13.30;7.68;;;;;;;21.46;73.68;95291.91;4993979;28;20215;-64
2022/06/28 00:57:12;;;;;;;8.13;7.07;;;;;;;21.67;72.85;95300.69;4995244;28;20203;-64
2022/06/28 00:59:39;;;;;;;7.15;6.45;;;;;;;21.96;71.93;95301.13;4995168;28;21359;-65
2022/06/28 01:02:06;;;;;;;7.93;7.00;;;;;;;22.05;70.93;95299.63;4994640;28;20257;-64
2022/06/28 01:04:33;;;;;;;12.20;6.95;;;;;;;21.99;71.15;95294.88;4994426;28;20227;-64
2022/06/28 01:07:01;;;;;;;7.30;6.63;;;;;;;21.68;72.68;95304.09;4995872;28;20228;-63
2022/06/28 01:09:29;;;;;;;8.98;6.47;;;;;;;21.69;72.42;95309.16;4995204;28;20207;-64
2022/06/28 01:11:56;;;;;;;8.32;6.70;;;;;;;21.83;72.17;95299.53;4995036;28;20704;-64
2022/06/28 01:14:25;;;;;;;6.32;5.78;;;;;;;21.86;71.79;95300.13;4994764;28;20214;-64
2022/06/28 01:16:52;;;;;;;7.78;6.75;;;;;;;21.71;72.10;95299.53;4996776;28;20221;-63
2022/06/28 01:19:19;;;;;;;7.13;6.45;;;;;;;21.69;71.99;95293.63;4995175;28;20203;-65
2022/06/28 01:21:49;;;;;;;9.65;6.10;;;;;;;21.37;73.06;95292.56;4995383;28;20218;-64
2022/06/28 01:24:17;;;;;;;6.72;6.13;;;;;;;21.28;73.46;95288.06;4994515;28;20209;-64
2022/06/28 01:26:45;;;;;;;8.07;6.55;;;;;;;21.16;73.87;95291.50;4994484;28;20238;-63
2022/06/28 01:29:12;;;;;;;9.10;6.38;;;;;;;21.33;73.33;95296.28;4994817;28;20292;-64
2022/06/28 01:31:39;;;;;;;7.28;6.13;;;;;;;21.35;73.14;95284.91;4994689;28;20232;-63
2022/06/28 01:34:06;;;;;;;8.68;6.45;;;;;;;21.22;73.69;95293.69;4995572;28;20212;-63
2022/06/28 01:36:33;;;;;;;14.02;7.18;;;;;;;21.40;73.26;95284.59;4995540;28;20199;-65
2022/06/28 01:39:00;;;;;;;8.68;6.75;;;;;;;21.61;72.44;95295.94;4994590;28;20818;-65
2022/06/28 01:41:34;;;;;;;6.75;6.15;;;;;;;21.73;71.59;95286.47;4996082;28;20208;-63
2022/06/28 01:44:04;;;;;;;8.05;6.35;;;;;;;21.68;71.53;95294.56;4994206;28;21636;-63
2022/06/28 01:46:33;;;;;;;10.90;6.60;;;;;;;21.44;72.18;95298.94;4994795;28;20227;-64
2022/06/28 01:49:00;;;;;;;9.68;6.88;;;;;;;21.26;73.33;95292.53;4993722;28;20207;-64
2022/06/28 01:51:27;;;;;;;6.95;6.32;;;;;;;21.39;72.99;95293.28;4996356;28;20296;-64
2022/06/28 01:53:53;;;;;;;6.20;5.60;;;;;;;21.49;72.63;95289.09;4993557;28;20207;-64
2022/06/28 01:56:20;;;;;;;7.05;6.38;;;;;;;21.60;71.98;95294.28;4994996;28;20211;-64
2022/06/28 01:58:48;;;;;;;6.53;6.03;;;;;;;21.67;71.62;95287.75;4995704;28;20204;-65
2022/06/28 02:01:15;;;;;;;7.28;6.13;;;;;;;21.66;71.32;95287.84;4996623;28;20677;-65
2022/06/28 02:03:42;;;;;;;6.20;5.80;;;;;;;21.59;71.76;95297.81;4993439;28;20696;-64
2022/06/28 02:06:09;;;;;;;8.68;6.45;;;;;;;21.35;72.71;95294.44;4994290;28;20310;-63
2022/06/28 02:08:36;;;;;;;6.68;6.20;;;;;;;21.41;72.41;95294.00;4996816;28;20207;-64
2022/06/28 02:11:05;;;;;;;11.38;6.45;;;;;;;21.31;72.68;95291.22;4999246;28;20345;-64
2022/06/28 02:13:32;;;;;;;6.22;5.72;;;;;;;21.18;72.92;95284.44;4997608;28;20226;-64
2022/06/28 02:16:02;;;;;;;6.75;6.25;;;;;;;21.23;72.99;95295.31;4997203;28;20229;-63
2022/06/28 02:18:30;;;;;;;14.73;6.38;;;;;;;21.23;73.00;95288.41;5001248;28;20207;-63
2022/06/28 02:20:57;;;;;;;6.00;5.57;;;;;;;21.34;72.43;95285.03;5001196;28;20200;-65
2022/06/28 02:23:24;;;;;;;6.72;6.30;;;;;;;21.29;72.32;95287.09;4999166;28;20208;-64
2022/06/28 02:25:51;;;;;;;11.23;6.07;;;;;;;21.17;72.59;95286.22;4997045;28;20627;-64
2022/06/28 02:28:18;;;;;;;6.68;6.28;;;;;;;21.02;72.99;95284.75;4998406;28;20219;-64
2022/06/28 02:30:44;;;;;;;6.93;6.32;;;;;;;21.14;72.55;95293.34;4998503;28;20215;-63
2022/06/28 02:33:12;;;;;;;6.68;6.13;;;;;;;21.12;72.66;95290.06;4997814;28;20238;-64
2022/06/28 02:41:08;;;;;;;8.48;6.82;;;;;;;20.89;73.51;95299.44;4995981;28;20584;-65
2022/06/28 02:43:34;;;;;;;7.65;5.95;;;;;;;20.98;73.15;95293.63;4996865;28;20297;-63
2022/06/28 02:46:01;;;;;;;7.90;6.55;;;;;;;21.04;72.99;95296.59;4998472;28;20203;-64
2022/06/28 02:48:29;;;;;;;10.75;6.72;;;;;;;21.09;72.56;95303.19;4997477;28;20822;-64
2022/06/28 02:50:56;;;;;;;7.20;6.50;;;;;;;21.16;72.34;95296.66;4996468;28;20917;-64
2022/06/28 02:53:23;;;;;;;14.85;6.35;;;;;;;20.97;73.06;95289.41;4997577;28;20880;-64
2022/06/28 02:55:49;;;;;;;7.53;6.18;;;;;;;20.61;74.13;95292.78;4998159;28;20199;-63
2022/06/28 02:58:16;;;;;;;9.68;8.10;;;;;;;20.19;75.52;95289.59;4997846;28;20208;-63
2022/06/28 03:00:43;;;;;;;7.30;6.60;;;;;;;20.18;76.63;95285.38;4998960;28;20638;-63
2022/06/28 03:03:10;;;;;;;9.00;7.47;;;;;;;20.58;75.22;95291.25;4997871;28;20212;-63
2022/06/28 03:05:38;;;;;;;11.35;7.10;;;;;;;21.02;73.18;95295.06;4998051;28;20239;-63
2022/06/28 03:08:05;;;;;;;12.40;6.00;;;;;;;21.28;71.89;95285.50;5001300;28;21181;-63
2022/06/28 03:10:32;;;;;;;8.15;6.45;;;;;;;21.33;71.65;95284.19;4999320;28;20204;-64
2022/06/28 03:12:58;;;;;;;6.60;6.00;;;;;;;21.34;71.62;95278.09;4998175;28;20211;-63
2022/06/28 03:15:25;;;;;;;9.48;6.78;;;;;;;21.32;71.75;95289.47;4998436;28;20195;-64
2022/06/28 03:17:52;;;;;;;6.43;5.93;;;;;;;21.41;71.64;95282.81;4995414;28;20717;-64
2022/06/28 03:20:19;;;;;;;13.43;7.25;;;;;;;21.40;71.19;95287.16;4998093;28;20305;-64
2022/06/28 03:22:47;;;;;;;8.90;6.50;;;;;;;21.35;71.71;95289.25;4996512;28;20206;-64
2022/06/28 03:25:14;;;;;;;10.05;7.22;;;;;;;21.45;70.94;95286.84;4998928;28;20207;-64
2022/06/28 03:27:41;;;;;;;9.38;6.85;;;;;;;21.52;70.73;95288.88;4996745;28;20231;-64
2022/06/28 03:30:09;;;;;;;7.18;6.47;;;;;;;21.58;70.71;95291.00;4996763;28;20206;-64
2022/06/28 03:32:36;;;;;;;11.35;6.20;;;;;;;22.34;68.84;95285.28;4996452;28;20681;-64
2022/06/28 03:35:03;;;;;;;10.38;6.57;;;;;;;23.86;64.40;95287.09;4997815;28;20211;-66
2022/06/28 03:37:29;;;;;;;11.95;6.50;;;;;;;25.60;58.48;95278.97;4996941;28;20199;-68
2022/06/28 03:39:58;;;;;;;8.77;6.03;;;;;;;26.92;54.56;95284.16;4998658;28;20227;-63
2022/06/28 03:42:25;;;;;;;12.88;7.07;;;;;;;28.09;50.77;95288.41;4998026;28;20215;-63
2022/06/28 03:44:51;;;;;;;9.88;6.15;;;;;;;28.76;48.80;95288.63;4996589;28;20208;-64
2022/06/28 03:47:18;;;;;;;11.52;6.50;;;;;;;29.68;46.63;95290.44;4994810;28;20379;-64
2022/06/28 03:49:47;;;;;;;9.13;6.57;;;;;;;30.30;44.52;95294.19;4996493;28;20211;-63
2022/06/28 03:52:14;;;;;;;11.10;6.40;;;;;;;30.79;43.26;95296.69;4996263;28;20262;-63
2022/06/28 03:54:41;;;;;;;7.82;5.53;;;;;;;31.17;42.50;95302.16;4997644;28;20784;-64
2022/06/28 03:57:09;;;;;;;8.73;5.22;;;;;;;31.63;41.31;95301.22;4998180;28;20195;-64
2022/06/28 03:59:36;;;;;;;10.95;5.57;;;;;;;32.42;39.61;95299.13;4997202;28;20199;-64
2022/06/28 04:02:04;;;;;;;6.07;4.60;;;;;;;32.75;38.49;95300.44;4997362;28;20634;-65
2022/06/28 04:04:31;;;;;;;7.07;5.78;;;;;;;32.95;38.13;95299.88;4994944;28;20301;-65
2022/06/28 04:06:58;;;;;;;5.68;4.95;;;;;;;32.85;38.08;95302.81;4996961;28;20215;-65
2022/06/28 04:09:24;;;;;;;8.95;5.80;;;;;;;33.03;38.11;95313.78;4996192;28;20711;-64
2022/06/28 04:11:51;;;;;;;22.10;19.85;;;;;;;33.01;37.61;95318.41;4995741;28;20203;-64
2022/06/28 04:14:19;;;;;;;11.50;10.50;;;;;;;32.21;39.16;95317.41;4996092;28;20203;-64
2022/06/28 04:16:46;;;;;;;6.85;6.22;;;;;;;31.26;41.02;95319.50;4997162;28;21190;-65
2022/06/28 04:19:13;;;;;;;7.55;6.50;;;;;;;30.20;43.15;95313.69;4997512;28;21782;-65
2022/06/28 04:21:39;;;;;;;13.20;5.82;;;;;;;29.39;45.04;95324.88;4995660;28;20594;-64
2022/06/28 04:24:06;;;;;;;7.95;5.85;;;;;;;28.65;46.38;95325.53;4996853;28;20780;-64
2022/06/28 04:26:33;;;;;;;12.95;5.88;;;;;;;28.03;48.10;95325.59;4997559;28;20788;-64
2022/06/28 04:29:00;;;;;;;5.95;5.40;;;;;;;27.64;48.88;95332.94;4998424;28;20266;-64
2022/06/28 04:31:28;;;;;;;8.07;5.95;;;;;;;27.37;49.70;95325.94;4995188;28;20199;-64
2022/06/28 04:33:55;;;;;;;6.15;5.55;;;;;;;27.35;49.91;95327.06;4995501;28;21123;-64
2022/06/28 04:36:23;;;;;;;6.07;5.57;;;;;;;27.52;49.60;95322.81;4995432;28;20212;-63
2022/06/28 04:38:49;;;;;;;7.53;5.55;;;;;;;27.10;50.79;95326.78;4994717;28;20207;-65
2022/06/28 04:41:17;;;;;;;10.73;6.50;;;;;;;27.71;49.26;95323.53;4996462;28;20199;-65
2022/06/28 04:43:44;;;;;;;13.45;11.80;;;;;;;28.34;47.88;95333.03;4995580;28;20207;-64
2022/06/28 04:46:10;;;;;;;10.27;7.63;;;;;;;29.14;46.29;95331.03;4997058;28;20210;-65
2022/06/28 04:48:39;;;;;;;37.45;27.27;;;;;;;30.21;43.97;95334.50;4994757;28;20219;-65
2022/06/28 04:51:11;;;;;;;37.58;25.50;;;;;;;31.18;41.72;95332.69;4995897;28;20568;-66
2022/06/28 04:53:39;;;;;;;11.57;10.38;;;;;;;31.42;40.65;95322.88;4995516;28;20248;-66
2022/06/28 04:56:07;;;;;;;10.23;8.27;;;;;;;31.60;40.71;95322.59;4995097;28;20216;-66
2022/06/28 04:58:33;;;;;;;9.30;7.88;;;;;;;32.15;39.72;95332.09;4993374;28;20249;-65
2022/06/28 05:01:00;;;;;;;9.23;8.38;;;;;;;32.41;39.57;95332.53;4996635;28;20240;-66
2022/06/28 05:03:27;;;;;;;10.68;8.23;;;;;;;32.00;40.07;95328.56;4996341;28;21853;-65
2022/06/28 05:05:56;;;;;;;10.77;8.50;;;;;;;31.95;40.13;95330.91;4995971;28;20223;-65
2022/06/28 05:08:23;;;;;;;12.90;8.48;;;;;;;31.82;40.59;95314.91;4994256;28;20231;-66
2022/06/28 05:10:49;;;;;;;19.25;16.27;;;;;;;31.13;42.40;95321.88;4996946;28;21559;-65
2022/06/28 05:13:16;;;;;;;19.50;12.82;;;;;;;30.22;43.87;95324.81;4995627;28;20258;-66
2022/06/28 05:15:43;;;;;;;9.88;8.32;;;;;;;29.50;46.11;95326.38;4996998;28;20220;-66
2022/06/28 05:18:10;;;;;;;8.30;7.55;;;;;;;28.99;47.39;95328.16;4995654;28;20972;-66
2022/06/28 05:20:36;;;;;;;7.63;7.10;;;;;;;29.31;46.53;95322.22;4994944;28;20752;-65
2022/06/28 05:23:05;;;;;;;8.32;7.50;;;;;;;30.51;44.34;95312.00;4991621;28;20740;-66
2022/06/28 05:25:31;;;;;;;34.65;24.85;;;;;;;32.75;40.05;95318.06;4995797;28;20231;-66
2022/06/28 05:27:58;;;;;;;16.90;14.20;;;;;;;34.90;36.21;95308.25;4996418;28;20775;-66
2022/06/28 05:30:25;;;;;;;11.38;9.35;;;;;;;35.66;34.30;95311.63;4996617;28;20208;-66
2022/06/28 05:32:52;;;;;;;17.10;8.38;;;;;;;37.45;31.54;95322.91;4996181;28;20718;-66
2022/06/28 05:35:18;;;;;;;8.13;7.00;;;;;;;38.38;30.02;95320.50;4995264;28;20226;-65
2022/06/28 05:37:45;;;;;;;7.50;6.85;;;;;;;38.51;29.49;95324.91;4995523;28;20195;-65
2022/06/28 05:40:14;;;;;;;8.48;7.65;;;;;;;38.12;29.55;95329.47;4994501;28;20833;-66
2022/06/28 05:42:41;;;;;;;7.53;6.93;;;;;;;37.39;30.84;95323.75;4997313;28;20767;-66
2022/06/28 05:45:09;;;;;;;45.67;34.42;;;;;;;37.38;30.90;95316.81;4997805;28;20704;-65
2022/06/28 05:47:36;;;;;;;12.27;11.25;;;;;;;36.76;31.52;95320.88;5000365;28;22724;-65
2022/06/28 05:50:03;;;;;;;11.13;9.95;;;;;;;36.96;31.34;95321.63;5000019;28;20277;-65
2022/06/28 05:52:29;;;;;;;9.60;8.68;;;;;;;36.08;33.04;95322.91;4998798;28;20289;-66
2022/06/28 05:54:56;;;;;;;9.80;8.98;;;;;;;37.32;31.05;95333.59;4997392;28;20211;-66
2022/06/28 05:57:24;;;;;;;14.63;7.07;;;;;;;37.12;31.03;95331.75;4998402;28;20214;-65
2022/06/28 05:59:51;;;;;;;10.02;6.95;;;;;;;36.91;31.84;95337.34;4997879;28;20207;-65
2022/06/28 06:02:18;;;;;;;7.13;6.63;;;;;;;36.80;31.90;95335.34;4998399;28;20218;-65
2022/06/28 06:04:45;;;;;;;9.35;6.28;;;;;;;36.71;32.61;95339.19;4997596;28;20227;-67
2022/06/28 06:07:11;;;;;;;22.30;16.02;;;;;;;35.52;33.45;95331.09;4998391;28;20215;-65
2022/06/28 06:09:42;;;;;;;11.73;10.63;;;;;;;34.56;35.64;95326.72;4999966;28;20562;-65
2022/06/28 06:12:09;;;;;;;13.85;9.05;;;;;;;34.32;35.86;95323.50;4998222;28;20685;-64
2022/06/28 06:14:37;;;;;;;9.18;8.32;;;;;;;33.90;36.65;95334.88;4998346;28;20214;-66
2022/06/28 06:17:04;;;;;;;8.27;7.55;;;;;;;34.10;36.32;95324.50;4998315;28;20273;-66
2022/06/28 06:19:31;;;;;;;7.25;6.55;;;;;;;34.43;36.19;95319.50;4997096;28;20195;-65
2022/06/28 06:21:58;;;;;;;8.23;7.53;;;;;;;34.28;35.68;95316.94;4999178;28;20703;-65
2022/06/28 06:24:24;;;;;;;13.90;8.20;;;;;;;34.34;36.23;95310.94;4997391;28;20226;-64
2022/06/28 06:26:51;;;;;;;17.88;8.18;;;;;;;33.98;36.95;95318.09;4997809;28;20336;-64
2022/06/28 06:29:18;;;;;;;12.38;7.78;;;;;;;34.08;36.22;95316.78;4994521;28;20235;-64
2022/06/28 06:31:46;;;;;;;8.57;7.20;;;;;;;33.81;37.72;95319.38;4995943;28;20734;-65
2022/06/28 06:34:14;;;;;;;9.95;6.05;;;;;;;33.66;37.94;95312.28;4993954;28;20665;-63
2022/06/28 06:36:41;;;;;;;18.95;7.75;;;;;;;33.46;37.71;95306.81;4995048;28;20207;-63
2022/06/28 06:39:08;;;;;;;10.15;7.72;;;;;;;33.26;37.72;95311.03;4993878;28;20203;-64
2022/06/28 06:41:35;;;;;;;8.98;6.07;;;;;;;33.06;38.29;95312.59;4992782;28;20950;-63
2022/06/28 06:44:02;;;;;;;8.02;6.25;;;;;;;32.76;39.06;95306.53;4994955;28;20204;-64
2022/06/28 06:46:29;;;;;;;7.18;6.43;;;;;;;32.43;39.37;95301.56;4997751;28;20613;-64
2022/06/28 06:48:57;;;;;;;9.43;6.32;;;;;;;31.82;41.06;95296.53;4993685;28;21147;-63
2022/06/28 06:51:24;;;;;;;9.43;6.60;;;;;;;31.54;41.96;95299.63;4997390;28;20264;-64
2022/06/28 06:53:51;;;;;;;10.00;6.53;;;;;;;31.44;42.69;95291.16;4993631;28;20636;-64
2022/06/28 06:56:18;;;;;;;8.80;7.47;;;;;;;30.77;43.24;95289.00;4992867;28;20211;-63
2022/06/28 06:58:45;;;;;;;30.75;22.23;;;;;;;30.28;44.01;95283.03;4992365;28;20688;-65
2022/06/28 07:01:12;;;;;;;197.88;141.65;;;;;;;30.40;44.26;95279.09;4994110;28;20202;-68
2022/06/28 07:03:44;;;;;;;9.65;7.82;;;;;;;30.43;44.37;95285.81;4996497;28;20746;-67
2022/06/28 07:06:12;;;;;;;8.15;6.10;;;;;;;30.79;44.03;95286.22;4995501;28;20228;-65
2022/06/28 07:08:39;;;;;;;9.32;6.85;;;;;;;30.91;44.11;95286.66;4995810;28;20727;-67
2022/06/28 07:11:06;;;;;;;10.85;7.00;;;;;;;30.85;45.28;95288.16;4995023;28;20281;-67
2022/06/28 07:13:33;;;;;;;10.18;7.28;;;;;;;31.08;44.41;95286.41;4995281;28;20215;-67
2022/06/28 07:16:01;;;;;;;12.50;5.85;;;;;;;30.98;44.20;95283.16;4993720;28;20210;-66
2022/06/28 07:18:28;;;;;;;7.68;6.70;;;;;;;31.09;45.05;95280.19;4995533;28;20207;-67
2022/06/28 07:20:55;;;;;;;6.65;6.05;;;;;;;30.50;46.21;95278.88;4997926;28;20212;-66
2022/06/28 07:23:23;;;;;;;7.35;5.65;;;;;;;30.63;46.05;95281.03;4993870;28;20192;-66
2022/06/28 07:25:50;;;;;;;6.88;6.18;;;;;;;30.89;44.72;95280.78;4994632;28;20235;-67
2022/06/28 07:28:17;;;;;;;13.15;6.97;;;;;;;31.11;44.79;95275.59;4994868;28;20228;-66
2022/06/28 07:30:44;;;;;;;6.05;5.50;;;;;;;31.25;44.40;95287.16;4993668;28;20208;-67
2022/06/28 07:33:11;;;;;;;9.05;6.22;;;;;;;31.28;43.97;95288.63;4996675;28;20256;-66
2022/06/28 07:35:38;;;;;;;6.80;6.20;;;;;;;31.18;44.91;95281.00;4994046;28;20735;-66
2022/06/28 07:38:05;;;;;;;11.70;8.32;;;;;;;31.23;44.47;95286.53;4995126;28;20208;-66
2022/06/28 07:40:33;;;;;;;11.00;6.10;;;;;;;30.97;44.24;95289.41;4997988;28;20207;-67
2022/06/28 07:43:01;;;;;;;7.30;6.65;;;;;;;30.68;45.41;95289.22;4996816;28;20693;-65
2022/06/28 07:45:27;;;;;;;8.63;5.82;;;;;;;30.49;45.36;95284.28;4997838;28;20203;-68
2022/06/28 07:47:54;;;;;;;6.32;5.80;;;;;;;30.66;45.07;95291.19;4996383;28;20726;-66
2022/06/28 07:53:08;;;;;;;55.03;36.25;;;;;;;31.02;43.02;95292.34;4993754;28;20755;-65
2022/06/28 07:55:36;;;;;;;18.55;10.90;;;;;;;31.13;43.77;95290.38;4995817;28;20520;-64
2022/06/28 07:58:03;;;;;;;13.25;8.75;;;;;;;30.93;44.17;95282.88;4997493;28;20273;-65
2022/06/28 08:00:30;;;;;;;14.70;12.07;;;;;;;30.54;43.36;95288.06;4995589;28;20554;-65
2022/06/28 08:02:57;;;;;;;9.90;7.38;;;;;;;30.32;43.80;95278.28;4997494;28;20207;-67
2022/06/28 08:05:24;;;;;;;9.88;7.85;;;;;;;30.14;43.30;95275.88;4996518;28;20218;-64
2022/06/28 08:07:51;;;;;;;10.07;8.95;;;;;;;30.06;43.58;95275.88;4995229;28;20207;-66
2022/06/28 08:10:18;;;;;;;6.65;6.07;;;;;;;29.88;44.31;95275.19;4995417;28;20215;-66
2022/06/28 08:12:46;;;;;;;11.90;9.43;;;;;;;29.90;44.42;95274.06;4995198;28;20245;-66
2022/06/28 08:15:13;;;;;;;4.15;3.95;;;;;;;29.29;43.82;95269.22;4996940;28;20327;-66
2022/06/28 08:17:40;;;;;;;5.65;5.18;;;;;;;29.04;44.77;95265.72;4998817;28;20212;-66
2022/06/28 08:20:08;;;;;;;4.68;4.45;;;;;;;29.09;45.35;95264.28;4994939;28;20196;-66
2022/06/28 08:22:36;;;;;;;7.88;5.18;;;;;;;29.31;45.78;95264.63;4994618;28;20640;-66
2022/06/28 08:25:03;;;;;;;5.70;4.20;;;;;;;29.03;46.88;95270.13;4995613;28;20210;-67
2022/06/28 08:27:30;;;;;;;5.28;4.88;;;;;;;29.31;46.24;95264.63;4997273;28;20206;-65
2022/06/28 08:29:58;;;;;;;4.65;4.35;;;;;;;29.36;45.00;95268.41;4997018;28;20283;-67
2022/06/28 08:32:25;;;;;;;5.43;4.80;;;;;;;28.64;46.28;95268.97;4994409;28;20704;-66
2022/06/28 08:34:52;;;;;;;4.80;4.40;;;;;;;28.24;47.46;95283.44;4994817;28;20631;-64
2022/06/28 08:37:19;;;;;;;6.00;4.85;;;;;;;28.62;47.28;95269.13;4994063;28;20203;-66
2022/06/28 08:39:46;;;;;;;6.10;4.40;;;;;;;28.80;46.87;95274.28;4992679;28;20222;-66
2022/06/28 08:42:16;;;;;;;6.85;4.97;;;;;;;28.82;47.98;95274.97;4994163;28;20198;-65
2022/06/28 08:44:44;;;;;;;5.82;4.53;;;;;;;28.98;48.00;95272.41;4993232;28;20968;-65
2022/06/28 08:47:15;;;;;;;5.90;4.65;;;;;;;28.77;46.08;95274.59;4992098;28;20489;-65
2022/06/28 08:49:49;;;;;;;4.85;4.38;;;;;;;28.75;48.08;95273.91;4991782;28;20367;-65
2022/06/28 08:52:18;;;;;;;5.15;4.65;;;;;;;28.87;46.30;95270.09;4991618;28;20268;-66
2022/06/28 08:54:47;;;;;;;4.40;4.15;;;;;;;28.59;47.10;95266.00;4994592;28;20206;-67
2022/06/28 08:57:14;;;;;;;6.80;4.05;;;;;;;28.46;48.11;95270.88;4992939;28;20210;-66
2022/06/28 08:59:41;;;;;;;5.00;4.60;;;;;;;28.49;47.16;95265.28;4994116;28;20208;-66
2022/06/28 09:02:08;;;;;;;4.47;4.18;;;;;;;28.63;46.05;95272.56;4993172;28;20215;-66
2022/06/28 09:04:36;;;;;;;10.38;7.07;;;;;;;28.95;46.45;95272.75;4993804;28;20219;-65
2022/06/28 09:07:03;;;;;;;6.93;6.25;;;;;;;29.08;44.16;95283.56;4995870;28;20261;-66
2022/06/28 09:09:30;;;;;;;11.10;9.93;;;;;;;29.50;44.92;95280.06;4994970;28;20242;-66
2022/06/28 09:11:57;;;;;;;5.95;4.70;;;;;;;29.70;44.81;95277.97;4993590;28;20207;-66
2022/06/28 09:14:26;;;;;;;5.55;3.53;;;;;;;29.40;42.96;95261.09;4994146;28;20204;-66
2022/06/28 09:16:53;;;;;;;4.07;3.70;;;;;;;29.61;44.53;95269.28;4995638;28;20215;-65
2022/06/28 09:19:33;;;;;;;10.73;6.97;;;;;;;29.70;43.86;95267.47;4998925;28;20215;-66
2022/06/28 09:22:03;;;;;;;4.30;4.00;;;;;;;29.52;43.39;95267.63;4999678;28;22157;-65
2022/06/28 09:24:30;;;;;;;4.57;4.28;;;;;;;29.41;43.96;95260.13;4996808;28;20348;-65
2022/06/28 09:27:03;;;;;;;4.68;4.20;;;;;;;29.38;44.49;95263.03;4999394;28;20250;-65
2022/06/28 09:29:30;;;;;;;4.05;3.75;;;;;;;29.58;44.96;95260.94;4997578;28;20254;-65
2022/06/28 09:31:57;;;;;;;4.88;4.50;;;;;;;29.59;43.80;95266.03;4997698;28;20214;-65
2022/06/28 09:34:24;;;;;;;5.47;4.10;;;;;;;29.85;44.20;95260.63;4996388;28;20203;-65
2022/06/28 09:36:56;;;;;;;5.78;5.13;;;;;;;29.75;44.17;95271.25;4997926;28;20282;-65
2022/06/28 09:39:29;;;;;;;5.95;5.43;;;;;;;29.91;44.37;95261.78;4996338;28;20719;-65
2022/06/28 09:41:57;;;;;;;4.75;4.20;;;;;;;30.28;44.16;95253.38;4997950;28;20216;-67
2022/06/28 09:44:25;;;;;;;4.00;3.78;;;;;;;30.19;43.32;95257.81;4996829;28;20206;-65
2022/06/28 09:46:54;;;;;;;7.05;3.72;;;;;;;30.13;42.01;95261.13;4997558;28;20226;-66
2022/06/28 09:49:28;;;;;;;16.63;13.52;;;;;;;29.42;43.67;95243.44;4996570;28;20255;-65
2022/06/28 09:51:56;;;;;;;6.57;5.07;;;;;;;29.84;44.48;95240.63;4996656;28;21084;-64
2022/06/28 09:54:27;;;;;;;5.85;4.38;;;;;;;29.15;44.08;95243.69;4994186;28;20763;-64
2022/06/28 09:56:55;;;;;;;4.55;4.10;;;;;;;28.40;45.17;95239.13;4993968;28;20203;-64
2022/06/28 09:59:24;;;;;;;3.65;3.45;;;;;;;28.63;45.85;95251.66;4997478;28;20208;-64
2022/06/28 10:01:52;;;;;;;4.80;4.50;;;;;;;29.14;44.81;95245.47;4996737;28;20204;-64
2022/06/28 10:04:19;;;;;;;5.95;4.38;;;;;;;29.26;44.42;95241.56;4994134;28;20297;-64
2022/06/28 10:06:46;;;;;;;3.90;3.42;;;;;;;29.29;44.25;95237.78;4997580;28;20211;-64
2022/06/28 10:09:13;;;;;;;7.85;3.78;;;;;;;29.63;44.38;95235.91;4996999;28;20334;-64
2022/06/28 10:17:29;;;;;;;3.90;3.60;;;;;;;29.60;43.47;95231.00;4995806;28;20306;-64
2022/06/28 10:19:58;;;;;;;4.90;4.50;;;;;;;29.85;43.20;95239.66;4994778;28;20436;-66
2022/06/28 10:22:25;;;;;;;5.00;4.30;;;;;;;29.56;43.94;95224.44;4994449;28;20208;-64
2022/06/28 10:24:54;;;;;;;5.93;4.20;;;;;;;29.87;44.11;95226.41;4993081;28;20830;-64
2022/06/28 10:27:23;;;;;;;7.30;3.95;;;;;;;29.92;42.02;95226.72;4955275;28;1127029;-65
2022/06/28 10:30:33;;;;;;;8.15;4.20;;;;;;;29.50;42.77;95217.22;4993299;28;20360;-64
2022/06/28 10:33:05;;;;;;;4.90;4.43;;;;;;;29.05;43.87;95221.06;4995148;28;20208;-64
2022/06/28 10:36:12;;;;;;;9.70;4.50;;;;;;;29.44;43.38;95220.53;4993738;28;20211;-64
2022/06/28 10:38:39;;;;;;;4.78;4.47;;;;;;;29.71;43.93;95224.59;4996521;28;20207;-64
2022/06/28 10:41:14;;;;;;;4.32;3.88;;;;;;;29.78;44.91;95223.78;4996657;28;20207;-65
2022/06/28 10:44:05;;;;;;;10.48;4.38;;;;;;;29.58;46.87;95209.38;4996088;28;20213;-64
2022/06/28 10:46:31;;;;;;;9.98;5.15;;;;;;;29.76;44.86;95210.03;4999135;28;21663;-65
2022/06/28 10:49:04;;;;;;;5.57;5.05;;;;;;;30.31;44.34;95204.03;4998081;28;20231;-65
2022/06/28 10:51:32;;;;;;;6.10;5.13;;;;;;;30.23;42.74;95205.88;4996567;28;20722;-66
2022/06/28 10:54:02;;;;;;;6.10;4.18;;;;;;;30.35;43.74;95205.34;4995733;28;20267;-65
2022/06/28 10:56:29;;;;;;;4.82;4.47;;;;;;;29.91;43.39;95206.75;4998619;28;20207;-65
2022/06/28 10:58:58;;;;;;;5.10;3.75;;;;;;;30.08;42.31;95197.88;4997149;28;20232;-66
2022/06/28 11:01:58;;;;;;;5.15;4.72;;;;;;;29.77;43.82;95198.56;4997853;28;20242;-65
2022/06/28 11:04:30;;;;;;;4.30;3.88;;;;;;;29.46;44.67;95194.97;4997701;28;20223;-64
2022/06/28 11:07:21;;;;;;;4.25;3.95;;;;;;;28.99;44.51;95195.53;4995730;28;20203;-64
2022/06/28 11:10:05;;;;;;;5.03;4.18;;;;;;;29.11;44.62;95183.81;4996923;28;20308;-64
2022/06/28 11:12:40;;;;;;;4.22;4.03;;;;;;;29.06;43.00;95173.00;4996672;28;20646;-65
2022/06/28 11:15:09;;;;;;;3.53;3.28;;;;;;;29.36;42.89;95179.41;4995401;28;20199;-65
2022/06/28 11:17:39;;;;;;;3.65;3.30;;;;;;;29.54;42.80;95175.81;4996550;28;20277;-64
2022/06/28 11:20:08;;;;;;;4.32;4.03;;;;;;;29.82;43.03;95174.50;4997060;28;20988;-65
2022/06/28 11:22:40;;;;;;;4.20;3.80;;;;;;;30.40;42.27;95171.59;4997512;28;20207;-64
2022/06/28 11:25:09;;;;;;;4.30;3.40;;;;;;;29.92;41.68;95180.38;4996393;28;20230;-64
2022/06/28 11:27:42;;;;;;;3.95;3.75;;;;;;;28.84;43.29;95191.09;4996935;28;20210;-65
2022/06/28 11:30:12;;;;;;;3.40;3.20;;;;;;;28.33;44.88;95196.28;4997069;28;20227;-65
2022/06/28 11:32:40;;;;;;;4.20;3.95;;;;;;;28.48;44.72;95190.44;4995929;28;20204;-66
2022/06/28 11:35:09;;;;;;;3.80;3.50;;;;;;;28.70;43.95;95182.06;4995137;28;21075;-64
2022/06/28 11:37:47;;;;;;;3.72;3.53;;;;;;;29.02;43.00;95187.38;4994568;28;20206;-64
2022/06/28 11:40:15;;;;;;;3.88;3.67;;;;;;;29.18;42.82;95193.63;4993801;28;20229;-64
2022/06/28 11:42:42;;;;;;;3.70;3.50;;;;;;;29.44;42.36;95189.09;4993039;28;20214;-64
2022/06/28 11:45:12;;;;;;;3.42;3.00;;;;;;;29.48;42.83;95189.56;4997349;28;20258;-64
2022/06/28 11:47:43;;;;;;;3.30;3.10;;;;;;;29.47;42.16;95193.97;4993663;28;20572;-64
2022/06/28 11:50:16;;;;;;;3.67;3.30;;;;;;;29.12;43.95;95189.84;4997017;28;20273;-64
2022/06/28 11:52:50;;;;;;;4.20;3.20;;;;;;;29.37;44.08;95190.69;4995565;28;20216;-64